Time;durP1;ratioP1;P1;durP2;ratioP2;P2;SDS_P1;SDS_P2;PMS_P1;PMS_P2;Temp;Humidity;BMP_temperature;BMP_pressure;BME280_temperature;BME280_humidity;BME280_pressure;Samples;Min_cycle;Max_cycle;Signal;HPM_P1;HPM_P2
2020/12/03 00:01:57;;;;;;;;;;;25.60;39.90;;;;;;5095780;28;19914;-51
2020/12/03 00:04:22;;;;;;;;;;;25.60;39.90;;;;;;5094527;28;19957;-52
2020/12/03 00:06:49;;;;;;;;;;;25.60;39.90;;;;;;5095479;28;19924;-52
2020/12/03 00:09:15;;;;;;;;;;;25.60;39.80;;;;;;5094458;28;20011;-53
2020/12/03 00:11:45;;;;;;;;;;;25.60;39.80;;;;;;5094447;28;19912;-53
2020/12/03 00:14:10;;;;;;;;;;;25.60;39.80;;;;;;5095643;28;20003;-53
2020/12/03 00:16:36;;;;;;;;;;;25.60;39.90;;;;;;5095268;28;20358;-53
2020/12/03 00:19:02;;;;;;;;;;;25.60;39.90;;;;;;5094374;28;19917;-53
2020/12/03 00:21:31;;;;;;;;;;;25.60;39.90;;;;;;5095130;28;20358;-54
2020/12/03 00:23:57;;;;;;;;;;;25.60;39.90;;;;;;5095177;28;19908;-54
2020/12/03 00:26:24;;;;;;;;;;;25.60;39.90;;;;;;5095374;28;19915;-54
2020/12/03 00:28:50;;;;;;;;;;;25.60;40.00;;;;;;5095013;28;19916;-52
2020/12/03 00:31:15;;;;;;;;;;;25.50;39.90;;;;;;5095205;28;19992;-54
2020/12/03 00:33:41;;;;;;;;;;;25.60;40.00;;;;;;5095535;28;20364;-51
2020/12/03 00:36:06;;;;;;;;;;;25.60;39.90;;;;;;5095087;28;20003;-51
2020/12/03 00:38:32;;;;;;;;;;;25.60;39.90;;;;;;5094876;28;19908;-50
2020/12/03 00:40:57;;;;;;;;;;;25.60;39.90;;;;;;5095056;28;19908;-51
2020/12/03 00:43:23;;;;;;;;;;;25.50;39.90;;;;;;5093865;28;20266;-52
2020/12/03 00:45:48;;;;;;;;;;;25.50;39.90;;;;;;5094841;28;19941;-53
2020/12/03 00:48:14;;;;;;;;;;;25.60;40.00;;;;;;5095011;28;20427;-52
2020/12/03 00:50:40;;;;;;;;;;;25.50;40.00;;;;;;5094969;28;19991;-51
2020/12/03 00:53:05;;;;;;;;;;;25.60;40.00;;;;;;5094503;28;20014;-52
2020/12/03 00:55:30;;;;;;;;;;;25.50;39.90;;;;;;5094857;28;19941;-53
2020/12/03 00:57:56;;;;;;;;;;;25.50;40.00;;;;;;5094446;28;20350;-52
2020/12/03 01:00:21;;;;;;;;;;;25.50;40.00;;;;;;5094486;28;19912;-51
2020/12/03 01:02:47;;;;;;;;;;;25.60;40.00;;;;;;5094611;28;20002;-52
2020/12/03 01:05:13;;;;;;;;;;;25.50;40.10;;;;;;5094677;28;20281;-53
2020/12/03 01:07:38;;;;;;;;;;;25.50;40.10;;;;;;5094160;28;20385;-52
2020/12/03 01:10:05;;;;;;;;;;;25.50;40.10;;;;;;5094583;28;19908;-52
2020/12/03 01:12:31;;;;;;;;;;;25.50;40.10;;;;;;5094444;28;20319;-51
2020/12/03 01:14:56;;;;;;;;;;;25.50;40.10;;;;;;5094489;28;20316;-54
2020/12/03 01:17:22;;;;;;;;;;;25.50;40.10;;;;;;5094409;28;19919;-51
2020/12/03 01:19:47;;;;;;;;;;;25.50;40.10;;;;;;5094454;28;19965;-54
2020/12/03 01:22:12;;;;;;;;;;;25.50;40.10;;;;;;5094056;28;19908;-54
2020/12/03 01:24:40;;;;;;;;;;;25.50;40.00;;;;;;5094253;28;19916;-51
2020/12/03 01:27:05;;;;;;;;;;;25.50;40.10;;;;;;5094226;28;19931;-52
2020/12/03 01:29:31;;;;;;;;;;;25.50;40.10;;;;;;5094203;28;20362;-52
2020/12/03 01:31:56;;;;;;;;;;;25.50;40.10;;;;;;5093789;28;19908;-53
2020/12/03 01:34:22;;;;;;;;;;;25.50;40.10;;;;;;5094112;28;19965;-51
2020/12/03 01:36:48;;;;;;;;;;;25.50;40.10;;;;;;5094104;28;19957;-51
2020/12/03 01:39:13;;;;;;;;;;;25.50;40.10;;;;;;5093735;28;20258;-54
2020/12/03 01:41:39;;;;;;;;;;;25.50;40.10;;;;;;5093970;28;19919;-51
2020/12/03 01:44:04;;;;;;;;;;;25.50;40.10;;;;;;5093619;28;19953;-52
2020/12/03 01:46:30;;;;;;;;;;;25.50;40.10;;;;;;5093608;28;19915;-52
2020/12/03 01:49:05;;;;;;;;;;;25.50;40.10;;;;;;5093778;28;19923;-54
2020/12/03 01:51:38;;;;;;;;;;;25.50;40.20;;;;;;5092278;28;19908;-53
2020/12/03 01:54:04;;;;;;;;;;;25.50;40.20;;;;;;5092548;28;19912;-51
2020/12/03 01:56:36;;;;;;;;;;;25.50;40.20;;;;;;5093716;28;19931;-51
2020/12/03 01:59:02;;;;;;;;;;;25.50;40.20;;;;;;5093391;28;20366;-52
2020/12/03 02:01:27;;;;;;;;;;;25.50;40.20;;;;;;5093620;28;19995;-53
2020/12/03 02:03:53;;;;;;;;;;;25.50;40.20;;;;;;5092042;28;20366;-54
2020/12/03 02:06:19;;;;;;;;;;;25.50;40.20;;;;;;5093060;28;20118;-54
2020/12/03 02:08:44;;;;;;;;;;;25.50;40.20;;;;;;5093548;28;19916;-51
2020/12/03 02:11:10;;;;;;;;;;;25.50;40.30;;;;;;5092762;28;20319;-53
2020/12/03 02:13:35;;;;;;;;;;;25.50;40.20;;;;;;5093217;28;19908;-54
2020/12/03 02:16:00;;;;;;;;;;;25.50;40.20;;;;;;5093488;28;20006;-54
2020/12/03 02:18:26;;;;;;;;;;;25.50;40.30;;;;;;5093181;28;19956;-51
2020/12/03 02:20:52;;;;;;;;;;;25.50;40.20;;;;;;5093382;28;19915;-54
2020/12/03 02:23:17;;;;;;;;;;;25.50;40.20;;;;;;5093334;28;20258;-54
2020/12/03 02:25:43;;;;;;;;;;;25.50;40.20;;;;;;5093385;28;19920;-55
2020/12/03 02:28:08;;;;;;;;;;;25.50;40.30;;;;;;5092961;28;19924;-53
2020/12/03 02:30:34;;;;;;;;;;;25.50;40.20;;;;;;5093141;28;19988;-51
2020/12/03 02:32:59;;;;;;;;;;;25.50;40.30;;;;;;5093095;28;20289;-51
2020/12/03 02:35:25;;;;;;;;;;;25.50;40.30;;;;;;5092953;28;19914;-52
2020/12/03 02:37:50;;;;;;;;;;;25.40;40.20;;;;;;5093310;28;19909;-52
2020/12/03 02:40:16;;;;;;;;;;;25.40;40.30;;;;;;5092944;28;20255;-51
2020/12/03 02:42:41;;;;;;;;;;;25.40;40.30;;;;;;5093180;28;19908;-51
2020/12/03 02:45:07;;;;;;;;;;;25.40;40.30;;;;;;5093220;28;20393;-52
2020/12/03 02:47:32;;;;;;;;;;;25.40;40.30;;;;;;5093083;28;19923;-51
2020/12/03 02:49:58;;;;;;;;;;;25.40;40.30;;;;;;5092803;28;19916;-52
2020/12/03 02:52:23;;;;;;;;;;;25.40;40.30;;;;;;5093127;28;19908;-53
2020/12/03 02:54:49;;;;;;;;;;;25.40;40.30;;;;;;5093129;28;20010;-54
2020/12/03 02:57:14;;;;;;;;;;;25.40;40.90;;;;;;5093167;28;20358;-51
2020/12/03 02:59:40;;;;;;;;;;;25.40;40.30;;;;;;5092918;28;19939;-51
2020/12/03 03:02:05;;;;;;;;;;;25.40;40.30;;;;;;5092952;28;19909;-52
2020/12/03 03:04:31;;;;;;;;;;;25.40;40.30;;;;;;5092704;28;20361;-53
2020/12/03 03:06:56;;;;;;;;;;;25.40;40.90;;;;;;5092591;28;20007;-52
2020/12/03 03:09:22;;;;;;;;;;;25.40;40.30;;;;;;5092698;28;19923;-52
2020/12/03 03:11:47;;;;;;;;;;;25.40;40.40;;;;;;5092580;28;19908;-51
2020/12/03 03:14:13;;;;;;;;;;;25.40;40.40;;;;;;5092743;28;19908;-51
2020/12/03 03:16:38;;;;;;;;;;;25.40;40.30;;;;;;5092629;28;19912;-51
2020/12/03 03:19:04;;;;;;;;;;;25.40;40.30;;;;;;5092900;28;19912;-53
2020/12/03 03:21:30;;;;;;;;;;;25.40;40.40;;;;;;5093489;28;19912;-54
2020/12/03 03:23:55;;;;;;;;;;;25.40;40.30;;;;;;5096563;28;19912;-51
2020/12/03 03:26:21;;;;;;;;;;;25.40;40.30;;;;;;5096284;28;19968;-54
2020/12/03 03:28:46;;;;;;;;;;;25.40;40.40;;;;;;5096684;28;19916;-53
2020/12/03 03:31:12;;;;;;;;;;;25.40;40.40;;;;;;5096153;28;19912;-53
2020/12/03 03:33:37;;;;;;;;;;;25.40;40.40;;;;;;5096219;28;19915;-51
2020/12/03 03:36:03;;;;;;;;;;;25.40;40.40;;;;;;5096610;28;19908;-52
2020/12/03 03:38:28;;;;;;;;;;;25.40;40.40;;;;;;5096214;28;20354;-54
2020/12/03 03:40:54;;;;;;;;;;;25.40;40.30;;;;;;5096000;28;19908;-52
2020/12/03 03:43:19;;;;;;;;;;;25.40;40.30;;;;;;5095919;28;19965;-52
2020/12/03 03:45:45;;;;;;;;;;;25.40;40.40;;;;;;5095986;28;19912;-52
2020/12/03 03:48:10;;;;;;;;;;;25.40;40.30;;;;;;5096101;28;19916;-52
2020/12/03 03:50:36;;;;;;;;;;;25.40;40.30;;;;;;5095751;28;20362;-51
2020/12/03 03:53:01;;;;;;;;;;;25.40;40.20;;;;;;5095750;28;19912;-52
2020/12/03 03:55:27;;;;;;;;;;;25.40;40.20;;;;;;5095920;28;19909;-53
2020/12/03 03:57:52;;;;;;;;;;;25.40;40.10;;;;;;5095969;28;20323;-52
2020/12/03 04:00:19;;;;;;;;;;;25.40;40.10;;;;;;5095992;28;19912;-52
2020/12/03 04:02:45;;;;;;;;;;;25.40;40.00;;;;;;5095498;28;20392;-51
2020/12/03 04:05:11;;;;;;;;;;;25.40;40.00;;;;;;5095802;28;19912;-53
2020/12/03 04:07:36;;;;;;;;;;;25.40;39.90;;;;;;5095283;28;19973;-52
2020/12/03 04:10:03;;;;;;;;;;;25.40;39.90;;;;;;5095454;28;19912;-51
2020/12/03 04:12:28;;;;;;;;;;;25.40;39.90;;;;;;5095390;28;19908;-52
2020/12/03 04:14:54;;;;;;;;;;;25.40;39.80;;;;;;5095658;28;19962;-54
2020/12/03 04:17:19;;;;;;;;;;;25.40;39.80;;;;;;5095398;28;20377;-55
2020/12/03 04:19:45;;;;;;;;;;;25.40;39.80;;;;;;5095248;28;19915;-52
2020/12/03 04:22:10;;;;;;;;;;;25.40;39.80;;;;;;5095439;28;19961;-54
2020/12/03 04:24:35;;;;;;;;;;;25.30;39.80;;;;;;5095224;28;19912;-55
2020/12/03 04:27:01;;;;;;;;;;;25.30;39.70;;;;;;5095487;28;19958;-54
2020/12/03 04:29:26;;;;;;;;;;;25.30;39.80;;;;;;5095394;28;20296;-52
2020/12/03 04:31:52;;;;;;;;;;;25.30;39.70;;;;;;5095350;28;20002;-51
2020/12/03 04:34:17;;;;;;;;;;;25.30;39.70;;;;;;5094226;28;20270;-52
2020/12/03 04:36:43;;;;;;;;;;;25.30;39.70;;;;;;5095271;28;19915;-52
2020/12/03 04:39:08;;;;;;;;;;;25.30;39.70;;;;;;5095060;28;19969;-55
2020/12/03 04:41:34;;;;;;;;;;;25.30;39.70;;;;;;5094803;28;19908;-51
2020/12/03 04:44:05;;;;;;;;;;;25.30;39.70;;;;;;5095118;28;19912;-53
2020/12/03 04:46:30;;;;;;;;;;;25.30;39.70;;;;;;5094984;28;19954;-52
2020/12/03 04:48:55;;;;;;;;;;;25.30;39.60;;;;;;5094677;28;19928;-55
2020/12/03 04:51:24;;;;;;;;;;;25.30;39.60;;;;;;5095167;28;19919;-52
2020/12/03 04:53:58;;;;;;;;;;;25.30;39.60;;;;;;5094817;28;19958;-51
2020/12/03 04:56:27;;;;;;;;;;;25.30;39.50;;;;;;5093352;28;19916;-53
2020/12/03 04:58:59;;;;;;;;;;;25.30;39.50;;;;;;5094813;28;19943;-52
2020/12/03 05:01:48;;;;;;;;;;;25.30;39.60;;;;;;5093099;28;19998;-52
2020/12/03 05:04:14;;;;;;;;;;;25.30;39.60;;;;;;5065495;28;20019;-52
2020/12/03 05:06:46;;;;;;;;;;;25.30;40.10;;;;;;5093135;28;19931;-51
2020/12/03 05:09:14;;;;;;;;;;;25.30;39.50;;;;;;5093364;28;19916;-52
2020/12/03 05:11:41;;;;;;;;;;;25.30;39.50;;;;;;5094150;28;20389;-53
2020/12/03 05:14:36;;;;;;;;;;;25.30;39.50;;;;;;5094192;28;19919;-52
2020/12/03 05:17:05;;;;;;;;;;;25.20;39.40;;;;;;5039330;28;19924;-52
2020/12/03 05:19:40;;;;;;;;;;;25.30;39.50;;;;;;5092892;28;19999;-52
2020/12/03 05:22:15;;;;;;;;;;;25.20;39.40;;;;;;5094252;28;19908;-51
2020/12/03 05:24:40;;;;;;;;;;;25.20;39.40;;;;;;5092656;28;19914;-52
2020/12/03 05:27:06;;;;;;;;;;;25.20;39.40;;;;;;5093975;28;19999;-51
2020/12/03 05:29:31;;;;;;;;;;;25.20;39.40;;;;;;5094279;28;19961;-54
2020/12/03 05:31:57;;;;;;;;;;;25.30;39.40;;;;;;5093922;28;19912;-54
2020/12/03 05:34:22;;;;;;;;;;;25.20;39.40;;;;;;5092581;28;20424;-54
2020/12/03 05:36:54;;;;;;;;;;;25.30;39.40;;;;;;5092458;28;19912;-53
2020/12/03 05:39:23;;;;;;;;;;;25.30;39.30;;;;;;5094040;28;19916;-51
2020/12/03 05:41:52;;;;;;;;;;;25.30;39.40;;;;;;5094008;28;19915;-56
2020/12/03 05:44:21;;;;;;;;;;;25.30;39.40;;;;;;5092098;28;19908;-51
2020/12/03 05:46:47;;;;;;;;;;;25.30;39.30;;;;;;5093374;28;19950;-51
2020/12/03 05:49:17;;;;;;;;;;;25.30;39.30;;;;;;5093430;28;19967;-52
2020/12/03 05:51:42;;;;;;;;;;;25.20;39.20;;;;;;5092250;28;19908;-53
2020/12/03 05:54:08;;;;;;;;;;;25.20;39.30;;;;;;5093803;28;19919;-52
2020/12/03 05:56:33;;;;;;;;;;;25.20;39.30;;;;;;5093440;28;19958;-53
2020/12/03 05:59:12;;;;;;;;;;;25.20;39.20;;;;;;5093453;28;20037;-52
2020/12/03 06:01:38;;;;;;;;;;;25.20;39.30;;;;;;5093238;28;19919;-51
2020/12/03 06:04:09;;;;;;;;;;;25.20;39.30;;;;;;5093358;28;19908;-51
2020/12/03 06:06:53;;;;;;;;;;;25.20;39.30;;;;;;5093251;28;19927;-54
2020/12/03 06:09:19;;;;;;;;;;;25.20;39.30;;;;;;5093157;28;20393;-51
2020/12/03 06:12:03;;;;;;;;;;;25.20;39.30;;;;;;5093220;28;19908;-51
2020/12/03 06:14:29;;;;;;;;;;;25.20;39.40;;;;;;5093201;28;20350;-52
2020/12/03 06:16:54;;;;;;;;;;;25.20;39.30;;;;;;5093454;28;19998;-55
2020/12/03 06:19:19;;;;;;;;;;;25.20;39.40;;;;;;5093066;28;20330;-52
2020/12/03 06:21:50;;;;;;;;;;;25.20;39.30;;;;;;5093348;28;19908;-55
2020/12/03 06:24:28;;;;;;;;;;;25.20;39.20;;;;;;5092205;28;19909;-53
2020/12/03 06:27:11;;;;;;;;;;;25.20;39.20;;;;;;5093323;28;20072;-53
2020/12/03 06:29:37;;;;;;;;;;;25.20;39.20;;;;;;5093027;28;20419;-54
2020/12/03 06:32:11;;;;;;;;;;;25.20;39.10;;;;;;5089793;28;19915;-53
2020/12/03 06:34:41;;;;;;;;;;;25.20;39.20;;;;;;5098931;28;19930;-54
2020/12/03 06:37:15;;;;;;;;;;;25.20;39.70;;;;;;5109043;28;19909;-54
2020/12/03 06:39:40;;;;;;;;;;;25.20;39.20;;;;;;5091797;28;19982;-51
2020/12/03 06:42:11;;;;;;;;;;;25.20;39.10;;;;;;5092888;28;19912;-52
2020/12/03 06:44:41;;;;;;;;;;;25.20;39.10;;;;;;5092079;28;19908;-51
2020/12/03 06:47:07;;;;;;;;;;;25.20;39.10;;;;;;5093176;28;19916;-51
2020/12/03 06:49:51;;;;;;;;;;;25.20;39.10;;;;;;5089429;28;20601;-55
2020/12/03 06:52:31;;;;;;;;;;;25.10;35.00;;;;;;5074246;28;19913;-53
2020/12/03 06:55:20;;;;;;;;;;;24.30;28.20;;;;;;5091616;28;20003;-52
2020/12/03 06:57:51;;;;;;;;;;;23.00;27.10;;;;;;5067030;28;20038;-51
2020/12/03 07:00:26;;;;;;;;;;;21.80;27.10;;;;;;5093885;28;20365;-50
2020/12/03 07:02:58;;;;;;;;;;;20.80;28.60;;;;;;5095339;28;19908;-54
2020/12/03 07:05:42;;;;;;;;;;;20.50;36.40;;;;;;5095646;28;19908;-50
2020/12/03 07:08:10;;;;;;;;;;;21.40;44.10;;;;;;5096667;28;20022;-50
2020/12/03 07:10:36;;;;;;;;;;;22.50;50.00;;;;;;5085146;28;19950;-50
2020/12/03 07:13:04;;;;;;;;;;;23.40;54.80;;;;;;5076372;28;19912;-54
2020/12/03 07:15:32;;;;;;;;;;;24.10;53.00;;;;;;5094309;28;19923;-53
2020/12/03 07:18:16;;;;;;;;;;;24.40;50.80;;;;;;5096901;28;19919;-52
2020/12/03 07:20:42;;;;;;;;;;;24.50;52.40;;;;;;5094584;28;20374;-49
2020/12/03 07:23:09;;;;;;;;;;;24.70;51.10;;;;;;5095571;28;19965;-51
2020/12/03 07:25:34;;;;;;;;;;;24.90;51.00;;;;;;5094941;28;19908;-54
2020/12/03 07:28:18;;;;;;;;;;;25.00;50.40;;;;;;5094969;28;19927;-53
2020/12/03 07:30:54;;;;;;;;;;;25.20;50.00;;;;;;5082002;28;19908;-48
2020/12/03 07:33:32;;;;;;;;;;;25.20;49.40;;;;;;5075782;28;20035;-49
2020/12/03 07:36:17;;;;;;;;;;;25.30;48.90;;;;;;5074526;28;19915;-49
2020/12/03 07:38:53;;;;;;;;;;;25.40;48.70;;;;;;5044393;28;19908;-48
2020/12/03 07:41:19;;;;;;;;;;;25.50;48.20;;;;;;5078392;28;19915;-50
2020/12/03 07:43:45;;;;;;;;;;;25.50;48.20;;;;;;5075797;28;19932;-49
2020/12/03 07:46:28;;;;;;;;;;;25.60;48.00;;;;;;5075469;28;20009;-51
2020/12/03 07:48:54;;;;;;;;;;;25.60;47.80;;;;;;5078100;28;19970;-49
2020/12/03 07:51:19;;;;;;;;;;;25.70;47.70;;;;;;5075561;28;19916;-55
2020/12/03 07:53:45;;;;;;;;;;;25.70;47.70;;;;;;5075845;28;19954;-52
2020/12/03 07:56:38;;;;;;;;;;;25.80;47.40;;;;;;5075620;28;20327;-50
2020/12/03 07:59:22;;;;;;;;;;;25.80;47.20;;;;;;5068911;28;20294;-52
2020/12/03 08:01:48;;;;;;;;;;;25.90;47.10;;;;;;5076524;28;19961;-54
2020/12/03 08:04:20;;;;;;;;;;;25.90;47.00;;;;;;5075188;28;20379;-56
2020/12/03 08:07:09;;;;;;;;;;;25.90;46.90;;;;;;5075021;28;19931;-52
2020/12/03 08:09:52;;;;;;;;;;;25.90;46.90;;;;;;5075605;28;19920;-57
2020/12/03 08:12:19;;;;;;;;;;;25.90;47.80;;;;;;5074605;28;19962;-54
2020/12/03 08:14:45;;;;;;;;;;;25.90;47.90;;;;;;5074161;28;19943;-54
2020/12/03 08:17:17;;;;;;;;;;;26.00;47.50;;;;;;5075121;28;19920;-56
2020/12/03 08:19:43;;;;;;;;;;;26.10;47.40;;;;;;5081793;28;19966;-57
2020/12/03 08:22:27;;;;;;;;;;;26.20;47.20;;;;;;5095486;28;19908;-54
2020/12/03 08:25:19;;;;;;;;;;;26.20;46.90;;;;;;5095565;28;20278;-57
2020/12/03 08:27:52;;;;;;;;;;;26.30;46.80;;;;;;5091947;28;20006;-56
2020/12/03 08:30:32;;;;;;;;;;;26.30;46.60;;;;;;5084301;28;20426;-54
2020/12/03 08:33:02;;;;;;;;;;;26.30;46.50;;;;;;5075992;28;19966;-55
2020/12/03 08:35:28;;;;;;;;;;;26.40;46.40;;;;;;5075417;28;20269;-55
2020/12/03 08:37:53;;;;;;;;;;;26.40;46.20;;;;;;5074706;28;20374;-56
2020/12/03 08:40:18;;;;;;;;;;;26.40;46.10;;;;;;5082833;28;19912;-56
2020/12/03 08:42:44;;;;;;;;;;;26.40;46.00;;;;;;5095049;28;19962;-56
2020/12/03 08:45:09;;;;;;;;;;;26.40;46.00;;;;;;5093667;28;19912;-57
2020/12/03 08:47:41;;;;;;;;;;;26.40;45.80;;;;;;5089423;28;19956;-56
2020/12/03 08:50:13;;;;;;;;;;;26.40;45.80;;;;;;5074494;28;20330;-56
2020/12/03 08:52:38;;;;;;;;;;;26.40;45.60;;;;;;5074384;28;20393;-57
2020/12/03 08:55:07;;;;;;;;;;;26.40;45.60;;;;;;5074707;28;19909;-55
2020/12/03 08:57:35;;;;;;;;;;;26.50;45.50;;;;;;5076939;28;19920;-56
2020/12/03 09:00:01;;;;;;;;;;;26.50;45.50;;;;;;5092938;28;19908;-54
2020/12/03 09:02:26;;;;;;;;;;;26.50;45.40;;;;;;5094409;28;19918;-57
2020/12/03 09:04:52;;;;;;;;;;;26.60;45.10;;;;;;5093595;28;19912;-57
2020/12/03 09:07:18;;;;;;;;;;;26.70;45.50;;;;;;5093928;28;20374;-58
2020/12/03 09:09:44;;;;;;;;;;;26.80;44.80;;;;;;5074063;28;20007;-54
2020/12/03 09:12:10;;;;;;;;;;;26.90;44.70;;;;;;5074186;28;19999;-56
2020/12/03 09:14:36;;;;;;;;;;;26.90;44.40;;;;;;5073151;28;19909;-57
2020/12/03 09:17:06;;;;;;;;;;;26.90;44.30;;;;;;5074328;28;20369;-58
2020/12/03 09:19:31;;;;;;;;;;;27.00;44.10;;;;;;5073029;28;19967;-57
2020/12/03 09:21:57;;;;;;;;;;;27.10;44.00;;;;;;5074170;28;20298;-55
2020/12/03 09:24:23;;;;;;;;;;;27.20;43.90;;;;;;5074146;28;19909;-56
2020/12/03 09:26:49;;;;;;;;;;;27.20;43.70;;;;;;5073935;28;19915;-55
2020/12/03 09:29:14;;;;;;;;;;;27.20;43.60;;;;;;5076458;28;19924;-57
2020/12/03 09:31:40;;;;;;;;;;;27.20;43.50;;;;;;5073700;28;19912;-57
2020/12/03 09:34:05;;;;;;;;;;;27.30;43.40;;;;;;5073636;28;19908;-57
2020/12/03 09:36:31;;;;;;;;;;;27.30;43.40;;;;;;5072350;28;19912;-57
2020/12/03 09:38:57;;;;;;;;;;;27.20;43.40;;;;;;5086871;28;19956;-57
2020/12/03 09:41:22;;;;;;;;;;;27.20;43.40;;;;;;5093757;28;19959;-57
2020/12/03 09:43:49;;;;;;;;;;;27.20;43.40;;;;;;5094013;28;19908;-57
2020/12/03 09:46:19;;;;;;;;;;;27.20;43.40;;;;;;5093731;28;20360;-57
2020/12/03 09:48:45;;;;;;;;;;;27.20;43.20;;;;;;5080969;28;19917;-54
2020/12/03 09:51:10;;;;;;;;;;;27.20;43.30;;;;;;5072395;28;19958;-54
2020/12/03 09:53:36;;;;;;;;;;;27.30;43.30;;;;;;5073309;28;20355;-57
2020/12/03 09:56:02;;;;;;;;;;;27.20;43.10;;;;;;5075779;28;19916;-55
2020/12/03 09:58:27;;;;;;;;;;;27.20;43.10;;;;;;5093704;28;20410;-55
2020/12/03 10:00:53;;;;;;;;;;;27.30;43.20;;;;;;5093266;28;19919;-57
2020/12/03 10:03:18;;;;;;;;;;;27.20;43.10;;;;;;5093281;28;19951;-56
2020/12/03 10:06:02;;;;;;;;;;;27.20;43.00;;;;;;5093227;28;19954;-54
2020/12/03 10:08:46;;;;;;;;;;;27.30;43.00;;;;;;5073379;28;19975;-56
2020/12/03 10:11:30;;;;;;;;;;;27.30;43.00;;;;;;5073290;28;20341;-55
2020/12/03 10:14:14;;;;;;;;;;;27.30;43.00;;;;;;5072976;28;20374;-56
2020/12/03 10:16:40;;;;;;;;;;;27.30;42.90;;;;;;5080405;28;19915;-57
2020/12/03 10:19:06;;;;;;;;;;;27.30;42.80;;;;;;5093198;28;20370;-55
2020/12/03 10:21:35;;;;;;;;;;;27.30;42.80;;;;;;5093497;28;20037;-57
2020/12/03 10:24:02;;;;;;;;;;;27.30;42.80;;;;;;5092003;28;20329;-55
2020/12/03 10:26:31;;;;;;;;;;;27.30;43.40;;;;;;5086553;28;19958;-57
2020/12/03 10:29:04;;;;;;;;;;;27.30;42.70;;;;;;5073228;28;20003;-56
2020/12/03 10:31:29;;;;;;;;;;;27.30;42.60;;;;;;5073131;28;20358;-56
2020/12/03 10:33:55;;;;;;;;;;;27.40;42.60;;;;;;5073164;28;19915;-57
2020/12/03 10:36:26;;;;;;;;;;;27.40;42.60;;;;;;5076849;28;19930;-56
2020/12/03 10:38:52;;;;;;;;;;;27.40;42.50;;;;;;5093047;28;20361;-58
2020/12/03 10:41:18;;;;;;;;;;;27.40;42.50;;;;;;5093025;28;19962;-57
2020/12/03 10:43:45;;;;;;;;;;;27.40;42.40;;;;;;5093281;28;19912;-56
2020/12/03 10:46:12;;;;;;;;;;;27.40;42.40;;;;;;5076473;28;19916;-57
2020/12/03 10:48:39;;;;;;;;;;;27.40;42.40;;;;;;5073004;28;20290;-57
2020/12/03 10:51:07;;;;;;;;;;;27.40;42.40;;;;;;5078749;28;20007;-56
2020/12/03 10:53:32;;;;;;;;;;;27.40;42.40;;;;;;5091971;28;19943;-54
2020/12/03 10:56:02;;;;;;;;;;;27.40;42.40;;;;;;5093045;28;19931;-57
2020/12/03 10:58:30;;;;;;;;;;;27.40;42.40;;;;;;5093131;28;19954;-56
2020/12/03 11:00:55;;;;;;;;;;;27.40;42.30;;;;;;5089305;28;19912;-57
2020/12/03 11:03:23;;;;;;;;;;;27.40;42.30;;;;;;5091786;28;19908;-56
2020/12/03 11:05:49;;;;;;;;;;;27.40;42.20;;;;;;5088657;28;19920;-53
2020/12/03 11:08:14;;;;;;;;;;;27.40;42.20;;;;;;5071261;28;19939;-57
2020/12/03 11:10:40;;;;;;;;;;;27.40;42.20;;;;;;5071301;28;19920;-57
2020/12/03 11:13:07;;;;;;;;;;;27.40;42.20;;;;;;5071526;28;19908;-55
2020/12/03 11:15:32;;;;;;;;;;;27.40;42.20;;;;;;5071539;28;19915;-54
2020/12/03 11:18:10;;;;;;;;;;;27.40;42.30;;;;;;5075956;28;20007;-57
2020/12/03 11:20:36;;;;;;;;;;;27.40;42.30;;;;;;5072587;28;20278;-56
2020/12/03 11:23:06;;;;;;;;;;;27.40;42.30;;;;;;5071320;28;20370;-55
2020/12/03 11:25:32;;;;;;;;;;;27.40;42.30;;;;;;5072642;28;19936;-56
2020/12/03 11:28:03;;;;;;;;;;;27.40;42.40;;;;;;5091460;28;20444;-55
2020/12/03 11:30:31;;;;;;;;;;;27.30;42.30;;;;;;5092562;28;19909;-54
2020/12/03 11:32:56;;;;;;;;;;;27.30;42.30;;;;;;5092702;28;19931;-56
2020/12/03 11:35:26;;;;;;;;;;;27.30;42.40;;;;;;5092723;28;20358;-57
2020/12/03 11:37:53;;;;;;;;;;;27.30;42.40;;;;;;5074202;28;19913;-55
2020/12/03 11:40:28;;;;;;;;;;;27.30;42.40;;;;;;5073944;28;19908;-54
2020/12/03 11:43:11;;;;;;;;;;;27.30;42.40;;;;;;5094057;28;19908;-54
2020/12/03 11:46:09;;;;;;;;;;;27.30;42.30;;;;;;5096323;28;19908;-53
2020/12/03 11:48:43;;;;;;;;;;;27.30;42.30;;;;;;5089941;28;20336;-54
2020/12/03 11:51:24;;;;;;;;;;;27.30;42.20;;;;;;5095654;28;20412;-55
2020/12/03 11:53:56;;;;;;;;;;;27.30;42.20;;;;;;5095737;28;20405;-54
2020/12/03 11:56:22;;;;;;;;;;;27.30;42.20;;;;;;5096087;28;19958;-54
2020/12/03 11:58:47;;;;;;;;;;;27.30;42.20;;;;;;5089414;28;19947;-57
2020/12/03 12:01:13;;;;;;;;;;;27.30;42.20;;;;;;5075327;28;20011;-55
2020/12/03 12:03:41;;;;;;;;;;;27.30;42.20;;;;;;5075461;28;19909;-54
2020/12/03 12:06:45;;;;;;;;;;;27.30;42.20;;;;;;5075430;28;19927;-56
2020/12/03 12:09:11;;;;;;;;;;;27.30;42.30;;;;;;5073045;28;19920;-56
2020/12/03 12:11:41;;;;;;;;;;;27.20;42.30;;;;;;5075375;28;20319;-57
2020/12/03 12:14:07;;;;;;;;;;;27.20;42.30;;;;;;5075205;28;19908;-56
2020/12/03 12:16:32;;;;;;;;;;;27.20;42.20;;;;;;5076236;28;20289;-56
2020/12/03 12:18:58;;;;;;;;;;;27.30;42.20;;;;;;5095911;28;19908;-57
2020/12/03 12:21:23;;;;;;;;;;;27.20;42.10;;;;;;5095280;28;19908;-54
2020/12/03 12:23:49;;;;;;;;;;;27.20;42.10;;;;;;5095629;28;19915;-56
2020/12/03 12:26:14;;;;;;;;;;;27.20;42.20;;;;;;5095536;28;19970;-56
2020/12/03 12:28:40;;;;;;;;;;;27.20;42.10;;;;;;5076172;28;19982;-56
2020/12/03 12:31:05;;;;;;;;;;;27.20;42.30;;;;;;5075316;28;19999;-55
2020/12/03 12:33:31;;;;;;;;;;;27.20;42.30;;;;;;5077392;28;19912;-55
2020/12/03 12:35:56;;;;;;;;;;;27.20;42.20;;;;;;5076690;28;19940;-56
2020/12/03 12:38:22;;;;;;;;;;;27.20;42.10;;;;;;5079412;28;19943;-54
2020/12/03 12:40:47;;;;;;;;;;;27.20;42.10;;;;;;5074789;28;20007;-57
2020/12/03 12:43:13;;;;;;;;;;;27.20;42.10;;;;;;5082200;28;19992;-57
2020/12/03 12:45:39;;;;;;;;;;;27.20;42.00;;;;;;5074706;28;20346;-56
2020/12/03 12:48:04;;;;;;;;;;;27.30;42.10;;;;;;5074538;28;19917;-57
2020/12/03 12:50:30;;;;;;;;;;;27.20;42.00;;;;;;5074756;28;19966;-56
2020/12/03 12:52:55;;;;;;;;;;;27.20;42.00;;;;;;5074705;28;19954;-56
2020/12/03 12:55:21;;;;;;;;;;;27.20;42.00;;;;;;5076532;28;20282;-55
2020/12/03 12:57:46;;;;;;;;;;;27.20;42.10;;;;;;5074379;28;20271;-55
2020/12/03 13:00:12;;;;;;;;;;;27.20;42.10;;;;;;5074291;28;19912;-57
2020/12/03 13:02:37;;;;;;;;;;;27.20;42.10;;;;;;5074385;28;19915;-57
2020/12/03 13:05:03;;;;;;;;;;;27.30;42.10;;;;;;5074456;28;19913;-57
2020/12/03 13:07:28;;;;;;;;;;;27.20;42.10;;;;;;5092505;28;19997;-56
2020/12/03 13:09:54;;;;;;;;;;;27.20;42.30;;;;;;5094377;28;19920;-56
2020/12/03 13:12:19;;;;;;;;;;;27.20;42.30;;;;;;5094675;28;20369;-55
2020/12/03 13:14:45;;;;;;;;;;;27.20;42.10;;;;;;5091168;28;19908;-57
2020/12/03 13:17:10;;;;;;;;;;;27.20;42.10;;;;;;5094461;28;19951;-56
2020/12/03 13:19:36;;;;;;;;;;;27.20;42.20;;;;;;5094190;28;20616;-57
2020/12/03 13:22:01;;;;;;;;;;;27.20;42.10;;;;;;5094235;28;19918;-54
2020/12/03 13:24:27;;;;;;;;;;;27.20;42.20;;;;;;5083870;28;19919;-57
2020/12/03 13:26:52;;;;;;;;;;;27.20;42.30;;;;;;5073789;28;19944;-56
2020/12/03 13:29:19;;;;;;;;;;;27.10;42.30;;;;;;5074067;28;19963;-56
2020/12/03 13:31:47;;;;;;;;;;;27.10;42.30;;;;;;5073705;28;19909;-57
2020/12/03 13:34:13;;;;;;;;;;;27.20;42.30;;;;;;5081072;28;20366;-54
2020/12/03 13:36:38;;;;;;;;;;;27.20;42.20;;;;;;5093917;28;19968;-56
2020/12/03 13:39:04;;;;;;;;;;;27.20;42.20;;;;;;5094150;28;19908;-54
2020/12/03 13:41:30;;;;;;;;;;;27.10;42.20;;;;;;5093854;28;19912;-57
2020/12/03 13:43:55;;;;;;;;;;;27.20;42.40;;;;;;5088477;28;20278;-56
2020/12/03 13:46:21;;;;;;;;;;;27.10;42.30;;;;;;5073355;28;19913;-56
2020/12/03 13:48:46;;;;;;;;;;;27.10;42.40;;;;;;5073593;28;19921;-55
2020/12/03 13:51:13;;;;;;;;;;;27.10;42.30;;;;;;5073457;28;19947;-57
2020/12/03 13:53:38;;;;;;;;;;;27.10;42.40;;;;;;5075571;28;19941;-56
2020/12/03 13:56:04;;;;;;;;;;;27.10;42.30;;;;;;5093911;28;20007;-57
2020/12/03 13:58:30;;;;;;;;;;;27.10;42.30;;;;;;5093481;28;19911;-55
2020/12/03 14:00:55;;;;;;;;;;;27.10;42.30;;;;;;5093403;28;19974;-56
2020/12/03 14:03:21;;;;;;;;;;;27.10;42.40;;;;;;5093041;28;19908;-57
2020/12/03 14:05:46;;;;;;;;;;;27.10;42.40;;;;;;5072444;28;19913;-55
2020/12/03 14:08:12;;;;;;;;;;;27.10;42.40;;;;;;5073305;28;19920;-54
2020/12/03 14:10:37;;;;;;;;;;;27.10;42.50;;;;;;5073108;28;19913;-57
2020/12/03 14:13:03;;;;;;;;;;;27.20;42.40;;;;;;5084060;28;19912;-56
2020/12/03 14:15:28;;;;;;;;;;;27.20;42.40;;;;;;5093530;28;19999;-54
2020/12/03 14:17:54;;;;;;;;;;;27.10;42.30;;;;;;5093290;28;20011;-54
2020/12/03 14:20:20;;;;;;;;;;;27.20;42.80;;;;;;5093429;28;19913;-56
2020/12/03 14:22:46;;;;;;;;;;;27.20;42.10;;;;;;5085085;28;19912;-54